createdAt,value
2022-09-04T00:00:39.172Z,14.38
2022-09-04T00:01:40.094Z,14.37
2022-09-04T00:02:39.113Z,14.42
2022-09-04T00:03:39.183Z,14.31
2022-09-04T00:04:39.196Z,14.38
2022-09-04T00:05:39.052Z,14.31
2022-09-04T00:06:39.031Z,14.34
2022-09-04T00:07:39.007Z,14.29
2022-09-04T00:08:38.982Z,14.20
2022-09-04T00:09:38.970Z,14.25
2022-09-04T00:10:38.955Z,14.24
2022-09-04T00:11:38.926Z,14.25
2022-09-04T00:12:38.900Z,14.27
2022-09-04T00:13:38.875Z,14.24
2022-09-04T00:14:38.856Z,14.19
2022-09-04T00:15:38.836Z,14.24
2022-09-04T00:16:38.837Z,14.14
2022-09-04T00:17:38.796Z,14.17
2022-09-04T00:18:38.769Z,14.10
2022-09-04T00:19:38.749Z,14.17
2022-09-04T00:20:38.722Z,14.24
2022-09-04T00:21:38.736Z,14.21
2022-09-04T00:22:38.688Z,14.21
2022-09-04T00:23:38.661Z,14.14
2022-09-04T00:24:38.644Z,14.12
2022-09-04T00:25:38.620Z,14.12
2022-09-04T00:26:38.604Z,14.09
2022-09-04T00:27:38.602Z,14.07
2022-09-04T00:28:38.554Z,14.13
2022-09-04T00:29:38.537Z,14.17
2022-09-04T00:30:38.559Z,14.19
2022-09-04T00:31:38.494Z,14.16
2022-09-04T00:32:38.471Z,14.06
2022-09-04T00:33:38.451Z,13.99
2022-09-04T00:34:38.439Z,14.06
2022-09-04T00:35:38.414Z,14.09
2022-09-04T00:36:38.384Z,14.12
2022-09-04T00:37:38.364Z,14.14
2022-09-04T00:38:38.344Z,14.24
2022-09-04T00:39:38.348Z,14.24
2022-09-04T00:40:38.303Z,14.21
2022-09-04T00:41:38.285Z,14.21
2022-09-04T00:42:38.258Z,14.17
2022-09-04T00:43:38.252Z,14.02
2022-09-04T00:44:38.218Z,14.09
2022-09-04T00:45:38.212Z,14.01
2022-09-04T00:46:38.170Z,13.99
2022-09-04T00:47:38.155Z,13.92
2022-09-04T00:48:38.123Z,13.84
2022-09-04T00:49:38.120Z,13.87
2022-09-04T00:50:38.084Z,13.92
2022-09-04T00:51:38.067Z,13.96
2022-09-04T00:52:38.048Z,13.94
2022-09-04T00:53:38.027Z,13.94
2022-09-04T00:54:38.000Z,13.96
2022-09-04T00:55:37.978Z,13.91
2022-09-04T00:56:37.955Z,13.94
2022-09-04T00:57:37.982Z,13.96
2022-09-04T00:58:37.922Z,13.91
2022-09-04T00:59:37.895Z,13.91
2022-09-04T01:00:37.870Z,13.92
2022-09-04T01:01:38.762Z,14.10
2022-09-04T01:02:37.828Z,14.17
2022-09-04T01:03:37.809Z,14.16
2022-09-04T01:04:37.790Z,14.16
2022-09-04T01:05:37.767Z,14.17
2022-09-04T01:06:37.743Z,14.19
2022-09-04T01:07:37.729Z,14.16
2022-09-04T01:08:37.699Z,14.16
2022-09-04T01:09:37.679Z,14.17
2022-09-04T01:10:37.656Z,14.21
2022-09-04T01:11:37.644Z,14.19
2022-09-04T01:12:37.610Z,14.20
2022-09-04T01:13:37.593Z,14.38
2022-09-04T01:14:37.613Z,14.37
2022-09-04T01:15:37.573Z,14.53
2022-09-04T01:16:37.637Z,14.52
2022-09-04T01:17:37.512Z,14.56
2022-09-04T01:18:37.501Z,14.50
2022-09-04T01:19:37.463Z,14.44
2022-09-04T01:20:37.444Z,14.50
2022-09-04T01:21:37.432Z,14.52
2022-09-04T01:22:37.396Z,14.56
2022-09-04T01:23:37.380Z,14.50
2022-09-04T01:24:37.354Z,14.53
2022-09-04T01:25:37.341Z,14.43
2022-09-04T01:26:37.315Z,14.39
2022-09-04T01:27:37.293Z,14.39
2022-09-04T01:28:37.271Z,14.31
2022-09-04T01:29:37.252Z,14.28
2022-09-04T01:30:37.231Z,14.27
2022-09-04T01:31:37.233Z,14.16
2022-09-04T01:32:37.189Z,14.04
2022-09-04T01:33:37.167Z,14.07
2022-09-04T01:34:37.145Z,14.09
2022-09-04T01:35:37.125Z,14.13
2022-09-04T01:36:37.105Z,14.10
2022-09-04T01:37:37.080Z,14.13
2022-09-04T01:38:37.056Z,14.17
2022-09-04T01:39:37.105Z,14.02
2022-09-04T01:40:37.026Z,14.07
2022-09-04T01:41:38.601Z,13.99
2022-09-04T01:42:37.049Z,13.98
2022-09-04T01:43:36.951Z,14.09
2022-09-04T01:44:36.956Z,14.04
2022-09-04T01:45:36.976Z,14.07
2022-09-04T01:46:36.887Z,14.02
2022-09-04T01:47:36.866Z,14.10
2022-09-04T01:48:36.865Z,14.07
2022-09-04T01:49:36.829Z,14.07
2022-09-04T01:50:36.804Z,13.92
2022-09-04T01:51:36.782Z,13.92
2022-09-04T01:52:36.847Z,13.99
2022-09-04T01:53:36.750Z,13.95
2022-09-04T01:54:36.723Z,13.76
2022-09-04T01:55:36.705Z,13.81
2022-09-04T01:56:36.672Z,13.81
2022-09-04T01:57:36.652Z,13.77
2022-09-04T01:58:36.632Z,13.92
2022-09-04T01:59:36.615Z,13.96
2022-09-04T02:00:37.940Z,13.95
2022-09-04T02:01:36.591Z,13.96
2022-09-04T02:02:36.649Z,13.96
2022-09-04T02:03:36.524Z,14.02
2022-09-04T02:04:36.502Z,13.96
2022-09-04T02:05:36.490Z,13.94
2022-09-04T02:06:36.457Z,13.81
2022-09-04T02:07:36.437Z,13.94
2022-09-04T02:08:36.432Z,13.98
2022-09-04T02:09:36.429Z,14.10
2022-09-04T02:10:36.376Z,14.12
2022-09-04T02:11:36.351Z,14.17
2022-09-04T02:12:36.331Z,14.27
2022-09-04T02:13:36.307Z,14.31
2022-09-04T02:14:36.291Z,14.29
2022-09-04T02:15:36.267Z,14.32
2022-09-04T02:16:36.359Z,14.38
2022-09-04T02:17:36.221Z,14.32
2022-09-04T02:18:36.206Z,14.31
2022-09-04T02:19:36.176Z,14.32
2022-09-04T02:20:36.160Z,14.34
2022-09-04T02:21:36.137Z,14.32
2022-09-04T02:22:36.118Z,14.32
2022-09-04T02:23:36.096Z,14.20
2022-09-04T02:24:36.082Z,14.24
2022-09-04T02:25:36.089Z,14.28
2022-09-04T02:26:36.032Z,14.19
2022-09-04T02:27:36.011Z,14.19
2022-09-04T02:28:36.000Z,14.12
2022-09-04T02:29:35.969Z,14.16
2022-09-04T02:30:35.947Z,14.14
2022-09-04T02:31:35.955Z,14.12
2022-09-04T02:32:35.912Z,14.04
2022-09-04T02:33:35.888Z,14.10
2022-09-04T02:34:35.866Z,14.13
2022-09-04T02:35:35.836Z,14.29
2022-09-04T02:36:35.816Z,14.29
2022-09-04T02:37:35.798Z,14.21
2022-09-04T02:38:35.771Z,14.19
2022-09-04T02:39:35.790Z,14.14
2022-09-04T02:40:35.727Z,14.14
2022-09-04T02:41:35.713Z,14.10
2022-09-04T02:42:35.717Z,14.06
2022-09-04T02:43:35.680Z,13.96
2022-09-04T02:44:35.644Z,14.04
2022-09-04T02:45:35.624Z,14.04
2022-09-04T02:46:38.079Z,13.99
2022-09-04T02:47:35.590Z,14.01
2022-09-04T02:48:35.559Z,14.09
2022-09-04T02:49:35.536Z,13.96
2022-09-04T02:50:35.526Z,13.96
2022-09-04T02:51:35.498Z,13.98
2022-09-04T02:52:35.481Z,14.01
2022-09-04T02:53:35.483Z,13.99
2022-09-04T02:54:35.432Z,13.94
2022-09-04T02:55:35.413Z,13.94
2022-09-04T02:56:35.391Z,13.88
2022-09-04T02:57:35.370Z,13.80
2022-09-04T02:58:35.346Z,13.76
2022-09-04T02:59:35.331Z,13.62
2022-09-04T03:00:35.409Z,13.67
2022-09-04T03:01:35.359Z,13.62
2022-09-04T03:02:35.259Z,13.71
2022-09-04T03:03:35.243Z,13.79
2022-09-04T03:04:35.232Z,13.71
2022-09-04T03:05:35.197Z,13.74
2022-09-04T03:06:35.184Z,13.69
2022-09-04T03:07:35.155Z,13.67
2022-09-04T03:08:36.340Z,13.69
2022-09-04T03:09:35.119Z,13.61
2022-09-04T03:10:35.110Z,13.59
2022-09-04T03:11:35.069Z,13.54
2022-09-04T03:12:35.048Z,13.58
2022-09-04T03:13:35.031Z,13.49
2022-09-04T03:14:35.004Z,13.54
2022-09-04T03:15:34.983Z,13.54
2022-09-04T03:16:35.065Z,13.56
2022-09-04T03:17:34.938Z,13.59
2022-09-04T03:18:34.913Z,13.54
2022-09-04T03:19:35.112Z,13.55
2022-09-04T03:20:34.872Z,13.61
2022-09-04T03:21:34.850Z,13.51
2022-09-04T03:22:34.857Z,13.55
2022-09-04T03:23:34.807Z,13.55
2022-09-04T03:24:34.780Z,13.52
2022-09-04T03:25:34.784Z,13.52
2022-09-04T03:26:34.755Z,13.56
2022-09-04T03:27:34.731Z,13.55
2022-09-04T03:28:34.697Z,13.46
2022-09-04T03:29:34.677Z,13.44
2022-09-04T03:30:34.659Z,13.38
2022-09-04T03:31:34.660Z,13.37
2022-09-04T03:32:34.616Z,13.24
2022-09-04T03:33:34.587Z,13.22
2022-09-04T03:34:34.563Z,13.24
2022-09-04T03:35:34.547Z,13.18
2022-09-04T03:36:34.534Z,13.24
2022-09-04T03:37:34.500Z,13.22
2022-09-04T03:38:34.481Z,13.29
2022-09-04T03:39:34.530Z,13.30
2022-09-04T03:40:34.436Z,13.43
2022-09-04T03:41:34.422Z,13.41
2022-09-04T03:42:34.395Z,13.43
2022-09-04T03:43:34.370Z,13.44
2022-09-04T03:44:34.377Z,13.44
2022-09-04T03:45:34.330Z,13.37
2022-09-04T03:46:34.356Z,13.38
2022-09-04T03:47:34.281Z,13.36
2022-09-04T03:48:34.265Z,13.36
2022-09-04T03:49:34.242Z,13.40
2022-09-04T03:50:34.233Z,13.24
2022-09-04T03:51:34.202Z,13.36
2022-09-04T03:52:34.184Z,13.41
2022-09-04T03:53:34.165Z,13.25
2022-09-04T03:54:34.129Z,13.24
2022-09-04T03:55:34.108Z,13.15
2022-09-04T03:56:34.095Z,13.14
2022-09-04T03:57:34.072Z,13.14
2022-09-04T03:58:34.063Z,13.15
2022-09-04T03:59:34.044Z,13.21
2022-09-04T04:00:34.090Z,13.27
2022-09-04T04:01:33.978Z,13.32
2022-09-04T04:02:33.997Z,13.40
2022-09-04T04:03:33.951Z,13.49
2022-09-04T04:04:33.915Z,13.61
2022-09-04T04:05:33.898Z,13.61
2022-09-04T04:06:33.888Z,13.67
2022-09-04T04:07:33.848Z,13.71
2022-09-04T04:08:33.828Z,13.77
2022-09-04T04:09:33.801Z,13.65
2022-09-04T04:10:33.926Z,13.62
2022-09-04T04:11:35.267Z,13.69
2022-09-04T04:12:33.734Z,13.70
2022-09-04T04:13:33.719Z,13.70
2022-09-04T04:14:33.690Z,13.65
2022-09-04T04:15:33.668Z,13.59
2022-09-04T04:16:33.778Z,13.59
2022-09-04T04:17:33.656Z,13.49
2022-09-04T04:18:33.612Z,13.51
2022-09-04T04:19:33.579Z,13.47
2022-09-04T04:20:33.569Z,13.37
2022-09-04T04:21:33.543Z,13.33
2022-09-04T04:22:33.529Z,13.33
2022-09-04T04:23:33.497Z,13.37
2022-09-04T04:24:33.474Z,13.36
2022-09-04T04:25:33.452Z,13.40
2022-09-04T04:26:33.434Z,13.29
2022-09-04T04:27:33.483Z,13.30
2022-09-04T04:28:33.398Z,13.27
2022-09-04T04:29:33.363Z,13.40
2022-09-04T04:30:33.342Z,13.32
2022-09-04T04:31:33.350Z,13.29
2022-09-04T04:32:33.298Z,13.22
2022-09-04T04:33:33.278Z,13.27
2022-09-04T04:34:33.257Z,13.25
2022-09-04T04:35:33.235Z,13.30
2022-09-04T04:36:33.217Z,13.27
2022-09-04T04:37:33.192Z,13.27
2022-09-04T04:38:33.168Z,13.25
2022-09-04T04:39:33.207Z,13.38
2022-09-04T04:40:33.149Z,13.46
2022-09-04T04:41:33.106Z,13.58
2022-09-04T04:42:33.086Z,13.63
2022-09-04T04:43:33.056Z,13.56
2022-09-04T04:44:33.034Z,13.58
2022-09-04T04:45:33.019Z,13.55
2022-09-04T04:46:33.045Z,13.47
2022-09-04T04:47:32.978Z,13.51
2022-09-04T04:48:32.950Z,13.51
2022-09-04T04:49:32.930Z,13.51
2022-09-04T04:50:32.907Z,13.51
2022-09-04T04:51:32.890Z,13.33
2022-09-04T04:52:32.868Z,13.38
2022-09-04T04:53:32.843Z,13.29
2022-09-04T04:54:32.840Z,13.36
2022-09-04T04:55:32.797Z,13.46
2022-09-04T04:56:32.773Z,13.40
2022-09-04T04:57:32.753Z,13.47
2022-09-04T04:58:32.732Z,13.54
2022-09-04T04:59:32.707Z,13.54
2022-09-04T05:00:32.682Z,13.56
2022-09-04T05:01:32.794Z,13.51
2022-09-04T05:02:32.752Z,13.52
2022-09-04T05:03:32.621Z,13.51
2022-09-04T05:04:32.638Z,13.54
2022-09-04T05:05:32.572Z,13.51
2022-09-04T05:06:32.562Z,13.49
2022-09-04T05:07:32.533Z,13.49
2022-09-04T05:08:32.535Z,13.47
2022-09-04T05:09:32.494Z,13.49
2022-09-04T05:10:32.466Z,13.43
2022-09-04T05:11:32.455Z,13.41
2022-09-04T05:12:32.431Z,13.46
2022-09-04T05:13:32.401Z,13.52
2022-09-04T05:14:32.379Z,13.55
2022-09-04T05:15:32.357Z,13.58
2022-09-04T05:16:32.377Z,13.49
2022-09-04T05:17:32.314Z,13.54
2022-09-04T05:18:32.294Z,13.58
2022-09-04T05:19:32.268Z,13.51
2022-09-04T05:20:32.254Z,13.56
2022-09-04T05:21:32.242Z,13.49
2022-09-04T05:22:34.360Z,13.47
2022-09-04T05:23:32.182Z,13.49
2022-09-04T05:24:32.161Z,13.52
2022-09-04T05:25:32.143Z,13.54
2022-09-04T05:26:32.119Z,13.54
2022-09-04T05:27:32.093Z,13.52
2022-09-04T05:28:32.079Z,13.54
2022-09-04T05:29:32.769Z,13.54
2022-09-04T05:30:32.049Z,13.58
2022-09-04T05:31:32.046Z,13.61
2022-09-04T05:32:31.984Z,13.67
2022-09-04T05:33:32.051Z,13.56
2022-09-04T05:34:31.981Z,13.59
2022-09-04T05:35:35.591Z,13.63
2022-09-04T05:36:31.963Z,13.65
2022-09-04T05:37:31.926Z,13.80
2022-09-04T05:38:32.111Z,13.87
2022-09-04T05:39:31.971Z,13.96
2022-09-04T05:40:31.873Z,13.96
2022-09-04T05:41:31.791Z,13.91
2022-09-04T05:42:31.779Z,13.89
2022-09-04T05:43:31.764Z,13.96
2022-09-04T05:44:31.733Z,13.88
2022-09-04T05:45:31.706Z,13.98
2022-09-04T05:46:31.734Z,13.98
2022-09-04T05:47:31.665Z,13.98
2022-09-04T05:48:31.643Z,14.02
2022-09-04T05:49:31.626Z,14.06
2022-09-04T05:50:31.646Z,14.06
2022-09-04T05:51:31.582Z,14.16
2022-09-04T05:52:31.559Z,14.02
2022-09-04T05:53:31.539Z,14.16
2022-09-04T05:54:31.513Z,14.24
2022-09-04T05:55:31.503Z,14.32
2022-09-04T05:56:31.471Z,14.37
2022-09-04T05:57:31.452Z,14.49
2022-09-04T05:58:31.446Z,14.65
2022-09-04T05:59:31.405Z,14.64
2022-09-04T06:00:31.389Z,14.72
2022-09-04T06:01:31.412Z,14.67
2022-09-04T06:02:31.367Z,14.69
2022-09-04T06:03:31.324Z,14.71
2022-09-04T06:04:31.301Z,14.74
2022-09-04T06:05:31.277Z,14.74
2022-09-04T06:06:31.258Z,14.80
2022-09-04T06:07:31.231Z,14.83
2022-09-04T06:08:31.313Z,14.94
2022-09-04T06:09:31.202Z,15.06
2022-09-04T06:10:31.180Z,15.06
2022-09-04T06:11:31.150Z,15.03
2022-09-04T06:12:31.127Z,15.12
2022-09-04T06:13:31.110Z,15.09
2022-09-04T06:14:31.101Z,15.09
2022-09-04T06:15:31.073Z,15.20
2022-09-04T06:16:31.087Z,15.30
2022-09-04T06:17:31.026Z,15.27
2022-09-04T06:18:31.009Z,15.33
2022-09-04T06:19:30.986Z,15.43
2022-09-04T06:20:30.971Z,15.49
2022-09-04T06:21:30.947Z,15.52
2022-09-04T06:22:30.922Z,15.63
2022-09-04T06:23:30.927Z,15.60
2022-09-04T06:24:30.882Z,15.60
2022-09-04T06:25:30.876Z,15.68
2022-09-04T06:26:30.839Z,15.76
2022-09-04T06:27:30.823Z,15.89
2022-09-04T06:28:30.804Z,16.01
2022-09-04T06:29:30.797Z,16.12
2022-09-04T06:30:30.766Z,16.25
2022-09-04T06:31:30.813Z,16.35
2022-09-04T06:32:30.724Z,16.31
2022-09-04T06:33:30.702Z,16.48
2022-09-04T06:34:30.677Z,16.65
2022-09-04T06:35:30.670Z,16.71
2022-09-04T06:36:30.658Z,16.83
2022-09-04T06:37:30.618Z,16.92
2022-09-04T06:38:30.603Z,16.98
2022-09-04T06:39:30.689Z,17.18
2022-09-04T06:40:30.581Z,17.17
2022-09-04T06:41:30.541Z,17.23
2022-09-04T06:42:30.521Z,17.25
2022-09-04T06:43:30.505Z,17.47
2022-09-04T06:44:30.477Z,17.50
2022-09-04T06:45:30.459Z,17.54
2022-09-04T06:46:30.489Z,17.74
2022-09-04T06:47:30.427Z,17.79
2022-09-04T06:48:30.404Z,18.03
2022-09-04T06:49:30.402Z,18.28
2022-09-04T06:50:30.369Z,18.06
2022-09-04T06:51:32.261Z,17.85
2022-09-04T06:52:30.335Z,17.95
2022-09-04T06:53:30.324Z,17.92
2022-09-04T06:54:32.429Z,17.91
2022-09-04T06:55:30.270Z,17.89
2022-09-04T06:56:30.255Z,17.67
2022-09-04T06:57:30.230Z,17.63
2022-09-04T06:58:30.217Z,17.51
2022-09-04T06:59:30.191Z,17.55
2022-09-04T07:00:30.171Z,17.59
2022-09-04T07:01:30.288Z,17.63
2022-09-04T07:02:30.184Z,17.55
2022-09-04T07:03:30.133Z,17.67
2022-09-04T07:04:30.105Z,17.78
2022-09-04T07:05:30.109Z,17.82
2022-09-04T07:06:30.063Z,17.76
2022-09-04T07:07:30.056Z,17.84
2022-09-04T07:08:30.022Z,17.91
2022-09-04T07:09:30.004Z,18.03
2022-09-04T07:10:29.996Z,18.07
2022-09-04T07:11:29.970Z,18.21
2022-09-04T07:12:29.958Z,18.31
2022-09-04T07:13:29.934Z,18.29
2022-09-04T07:14:29.915Z,18.42
2022-09-04T07:16:29.876Z,18.67
2022-09-04T07:17:29.860Z,18.68
2022-09-04T07:18:29.845Z,18.76
2022-09-04T07:19:29.832Z,18.82
2022-09-04T07:20:29.808Z,18.73
2022-09-04T07:21:30.417Z,18.70
2022-09-04T07:22:29.793Z,18.76
2022-09-04T07:23:29.753Z,18.84
2022-09-04T07:24:29.733Z,18.99
2022-09-04T07:25:29.714Z,19.17
2022-09-04T07:26:29.690Z,19.29
2022-09-04T07:27:29.675Z,19.29
2022-09-04T07:28:29.658Z,19.46
2022-09-04T07:29:29.642Z,19.31
2022-09-04T07:30:29.631Z,19.40
2022-09-04T07:31:29.626Z,19.35
2022-09-04T07:32:29.590Z,19.46
2022-09-04T07:33:29.581Z,19.60
2022-09-04T07:34:29.557Z,19.46
2022-09-04T07:35:29.536Z,19.48
2022-09-04T07:36:29.870Z,19.75
2022-09-04T07:37:29.506Z,19.76
2022-09-04T07:38:29.489Z,19.78
2022-09-04T07:39:29.512Z,19.90
2022-09-04T07:40:30.801Z,20.05
2022-09-04T07:41:29.455Z,20.25
2022-09-04T07:42:30.916Z,20.31
2022-09-04T07:43:29.406Z,20.27
2022-09-04T07:44:29.409Z,20.21
2022-09-04T07:45:29.403Z,20.41
2022-09-04T07:46:29.375Z,20.61
2022-09-04T07:47:29.341Z,20.79
2022-09-04T07:48:29.342Z,20.84
2022-09-04T07:49:29.315Z,20.96
2022-09-04T07:50:29.291Z,21.20
2022-09-04T07:51:29.277Z,21.21
2022-09-04T07:52:29.258Z,21.26
2022-09-04T07:53:29.253Z,21.63
2022-09-04T07:54:29.230Z,21.64
2022-09-04T07:55:29.214Z,21.76
2022-09-04T07:56:29.203Z,22.10
2022-09-04T07:57:29.186Z,22.16
2022-09-04T07:58:29.172Z,22.34
2022-09-04T07:59:29.155Z,22.49
2022-09-04T08:00:29.140Z,22.78
2022-09-04T08:01:29.154Z,22.82
2022-09-04T08:02:29.110Z,23.24
2022-09-04T08:03:29.097Z,23.47
2022-09-04T08:04:29.165Z,23.32
2022-09-04T08:05:29.063Z,23.47
2022-09-04T08:06:29.053Z,23.70
2022-09-04T08:07:29.033Z,23.98
2022-09-04T08:08:29.022Z,23.70
2022-09-04T08:09:29.011Z,23.29
2022-09-04T08:10:29.002Z,23.01
2022-09-04T08:11:29.012Z,22.96
2022-09-04T08:12:28.970Z,23.05
2022-09-04T08:13:28.949Z,23.09
2022-09-04T08:14:28.934Z,23.08
2022-09-04T08:15:28.961Z,23.31
2022-09-04T08:16:28.927Z,23.60
2022-09-04T08:17:28.894Z,24.00
2022-09-04T08:18:28.879Z,23.98
2022-09-04T08:19:28.868Z,24.17
2022-09-04T08:20:29.008Z,24.07
2022-09-04T08:21:28.840Z,23.90
2022-09-04T08:22:28.823Z,24.07
2022-09-04T08:23:28.808Z,24.34
2022-09-04T08:24:28.794Z,24.64
2022-09-04T08:25:28.786Z,25.32
2022-09-04T08:26:28.770Z,25.67
2022-09-04T08:27:28.763Z,25.93
2022-09-04T08:28:28.741Z,26.39
2022-09-04T08:29:28.731Z,26.77
2022-09-04T08:30:28.713Z,27.06
2022-09-04T08:31:28.804Z,27.46
2022-09-04T08:32:32.467Z,27.62
2022-09-04T08:33:28.680Z,27.61
2022-09-04T08:34:28.667Z,27.70
2022-09-04T08:35:28.679Z,27.58
2022-09-04T08:36:28.638Z,27.99
2022-09-04T08:37:28.623Z,27.95
2022-09-04T08:38:28.613Z,28.14
2022-09-04T08:39:28.636Z,28.22
2022-09-04T08:40:28.588Z,28.54
2022-09-04T08:41:28.567Z,28.31
2022-09-04T08:42:28.559Z,27.32
2022-09-04T08:43:28.552Z,26.80
2022-09-04T08:44:28.536Z,26.74
2022-09-04T08:45:28.522Z,26.91
2022-09-04T08:46:29.110Z,27.16
2022-09-04T08:47:28.549Z,27.46
2022-09-04T08:48:28.490Z,27.71
2022-09-04T08:49:28.490Z,28.06
2022-09-04T08:50:28.466Z,27.69
2022-09-04T08:51:28.455Z,27.57
2022-09-04T08:52:28.439Z,27.32
2022-09-04T08:53:28.448Z,26.73
2022-09-04T08:54:28.416Z,26.62
2022-09-04T08:55:28.398Z,27.02
2022-09-04T08:56:28.398Z,26.95
2022-09-04T08:57:28.380Z,27.14
2022-09-04T08:58:28.361Z,27.66
2022-09-04T08:59:28.350Z,27.92
2022-09-04T09:00:28.343Z,27.51
2022-09-04T09:01:28.370Z,27.26
2022-09-04T09:02:28.343Z,27.23
2022-09-04T09:03:28.307Z,27.23
2022-09-04T09:04:28.288Z,27.16
2022-09-04T09:05:28.280Z,27.53
2022-09-04T09:06:28.270Z,27.96
2022-09-04T09:07:28.257Z,28.23
2022-09-04T09:08:31.540Z,27.82
2022-09-04T09:09:28.243Z,28.09
2022-09-04T09:10:28.252Z,28.32
2022-09-04T09:11:28.206Z,28.11
2022-09-04T09:12:28.193Z,28.03
2022-09-04T09:13:28.194Z,28.65
2022-09-04T09:14:28.172Z,29.29
2022-09-04T09:15:28.175Z,29.60
2022-09-04T09:16:28.231Z,29.56
2022-09-04T09:17:29.844Z,29.26
2022-09-04T09:18:28.126Z,29.25
2022-09-04T09:19:28.111Z,29.45
2022-09-04T09:20:28.101Z,29.57
2022-09-04T09:21:28.089Z,29.62
2022-09-04T09:22:28.091Z,29.60
2022-09-04T09:23:28.186Z,29.87
2022-09-04T09:24:28.054Z,29.60
2022-09-04T09:25:28.052Z,29.01
2022-09-04T09:26:28.038Z,27.82
2022-09-04T09:27:28.023Z,27.98
2022-09-04T09:28:28.013Z,28.32
2022-09-04T09:29:27.996Z,28.13
2022-09-04T09:30:28.063Z,27.96
2022-09-04T09:31:27.972Z,28.21
2022-09-04T09:32:28.018Z,28.17
2022-09-04T09:33:27.988Z,28.25
2022-09-04T09:34:27.941Z,28.53
2022-09-04T09:35:27.930Z,28.87
2022-09-04T09:36:27.918Z,29.31
2022-09-04T09:37:27.907Z,29.45
2022-09-04T09:38:27.909Z,29.43
2022-09-04T09:39:27.919Z,29.43
2022-09-04T09:40:27.887Z,28.85
2022-09-04T09:41:27.862Z,29.16
2022-09-04T09:42:27.849Z,29.33
2022-09-04T09:43:27.838Z,29.41
2022-09-04T09:44:27.829Z,29.81
2022-09-04T09:45:27.826Z,29.93
2022-09-04T09:46:27.883Z,29.16
2022-09-04T09:47:27.836Z,29.26
2022-09-04T09:48:27.787Z,29.68
2022-09-04T09:49:27.774Z,29.86
2022-09-04T09:50:27.762Z,29.87
2022-09-04T09:51:27.760Z,29.60
2022-09-04T09:52:27.740Z,29.41
2022-09-04T09:53:27.765Z,28.82
2022-09-04T09:54:27.751Z,27.92
2022-09-04T09:55:27.711Z,28.09
2022-09-04T09:56:27.713Z,28.29
2022-09-04T09:57:33.507Z,28.85
2022-09-04T09:58:27.685Z,28.84
2022-09-04T09:59:27.700Z,28.21
2022-09-04T10:00:27.672Z,28.41
2022-09-04T10:01:27.703Z,28.73
2022-09-04T10:02:27.664Z,29.19
2022-09-04T10:03:27.641Z,29.60
2022-09-04T10:04:27.627Z,29.90
2022-09-04T10:05:27.617Z,30.00
2022-09-04T10:06:27.627Z,28.96
2022-09-04T10:07:27.593Z,28.59
2022-09-04T10:08:35.406Z,28.23
2022-09-04T10:09:27.576Z,27.74
2022-09-04T10:10:27.563Z,27.23
2022-09-04T10:11:27.556Z,26.52
2022-09-04T10:12:27.549Z,26.39
2022-09-04T10:13:27.569Z,26.20
2022-09-04T10:14:27.523Z,26.06
2022-09-04T10:15:27.517Z,25.98
2022-09-04T10:16:27.579Z,25.80
2022-09-04T10:17:27.502Z,25.54
2022-09-04T10:18:27.516Z,25.35
2022-09-04T10:19:27.493Z,25.35
2022-09-04T10:20:27.476Z,25.38
2022-09-04T10:21:27.469Z,25.37
2022-09-04T10:22:27.447Z,25.19
2022-09-04T10:23:27.441Z,25.22
2022-09-04T10:24:27.429Z,25.37
2022-09-04T10:25:27.427Z,26.06
2022-09-04T10:26:31.745Z,26.32
2022-09-04T10:27:27.396Z,26.21
2022-09-04T10:28:27.383Z,26.50
2022-09-04T10:29:27.389Z,26.57
2022-09-04T10:30:27.454Z,26.92
2022-09-04T10:31:27.365Z,27.26
2022-09-04T10:32:27.348Z,27.35
2022-09-04T10:33:27.507Z,27.47
2022-09-04T10:34:27.340Z,27.11
2022-09-04T10:35:27.338Z,26.89
2022-09-04T10:36:27.310Z,26.64
2022-09-04T10:37:27.319Z,26.52
2022-09-04T10:38:27.289Z,26.06
2022-09-04T10:39:27.346Z,25.75
2022-09-04T10:40:27.302Z,25.69
2022-09-04T10:41:27.256Z,25.64
2022-09-04T10:42:27.249Z,25.79
2022-09-04T10:43:27.244Z,26.55
2022-09-04T10:44:27.227Z,26.62
2022-09-04T10:45:27.318Z,26.76
2022-09-04T10:46:27.242Z,26.77
2022-09-04T10:47:27.201Z,27.20
2022-09-04T10:48:28.741Z,27.47
2022-09-04T10:49:27.191Z,27.85
2022-09-04T10:50:27.204Z,28.21
2022-09-04T10:51:27.174Z,28.23
2022-09-04T10:52:27.149Z,28.38
2022-09-04T10:53:27.140Z,28.41
2022-09-04T10:54:27.140Z,28.46
2022-09-04T10:55:27.132Z,28.07
2022-09-04T10:56:27.112Z,27.84
2022-09-04T10:57:27.108Z,27.91
2022-09-04T10:58:27.123Z,27.94
2022-09-04T10:59:27.108Z,27.99
2022-09-04T11:00:27.084Z,28.06
2022-09-04T11:01:27.154Z,28.36
2022-09-04T11:02:27.171Z,28.60
2022-09-04T11:03:27.078Z,28.59
2022-09-04T11:04:27.064Z,28.47
2022-09-04T11:05:27.067Z,28.81
2022-09-04T11:06:27.041Z,29.23
2022-09-04T11:07:28.797Z,29.31
2022-09-04T11:08:27.028Z,28.88
2022-09-04T11:09:27.026Z,28.77
2022-09-04T11:10:27.027Z,28.66
2022-09-04T11:11:27.090Z,28.26
2022-09-04T11:12:27.002Z,28.16
2022-09-04T11:13:27.005Z,28.07
2022-09-04T11:14:26.983Z,28.03
2022-09-04T11:15:26.997Z,28.16
2022-09-04T11:16:27.036Z,28.36
2022-09-04T11:17:26.966Z,28.41
2022-09-04T11:18:26.984Z,28.75
2022-09-04T11:19:26.977Z,28.46
2022-09-04T11:20:26.977Z,28.53
2022-09-04T11:21:26.946Z,28.95
2022-09-04T11:22:26.951Z,29.19
2022-09-04T11:23:26.940Z,29.06
2022-09-04T11:24:26.928Z,29.19
2022-09-04T11:25:26.931Z,29.01
2022-09-04T11:26:26.921Z,29.06
2022-09-04T11:27:26.938Z,29.38
2022-09-04T11:28:26.948Z,29.44
2022-09-04T11:29:26.922Z,29.40
2022-09-04T11:30:26.900Z,29.26
2022-09-04T11:31:27.125Z,29.29
2022-09-04T11:32:26.892Z,29.23
2022-09-04T11:33:26.898Z,28.75
2022-09-04T11:34:26.908Z,28.25
2022-09-04T11:35:26.893Z,28.19
2022-09-04T11:36:26.880Z,27.82
2022-09-04T11:37:26.889Z,27.35
2022-09-04T11:38:26.878Z,26.86
2022-09-04T11:39:26.896Z,27.11
2022-09-04T11:40:26.854Z,27.02
2022-09-04T11:41:26.870Z,26.65
2022-09-04T11:42:26.893Z,26.62
2022-09-04T11:43:26.881Z,26.39
2022-09-04T11:44:26.849Z,26.28
2022-09-04T11:45:26.881Z,26.21
2022-09-04T11:46:26.837Z,26.29
2022-09-04T11:47:26.904Z,26.22
2022-09-04T11:48:26.822Z,26.28
2022-09-04T11:49:26.835Z,26.18
2022-09-04T11:50:26.779Z,26.12
2022-09-04T11:51:26.771Z,25.94
2022-09-04T11:52:26.777Z,25.90
2022-09-04T11:53:26.761Z,25.90
2022-09-04T11:54:26.757Z,26.25
2022-09-04T11:55:26.777Z,26.69
2022-09-04T11:56:26.726Z,27.38
2022-09-04T11:57:26.746Z,27.43
2022-09-04T11:58:26.731Z,27.10
2022-09-04T11:59:26.703Z,27.16
2022-09-04T12:00:26.692Z,27.48
2022-09-04T12:01:26.697Z,27.71
2022-09-04T12:02:26.791Z,27.96
2022-09-04T12:03:26.697Z,28.11
2022-09-04T12:04:26.683Z,27.91
2022-09-04T12:05:26.681Z,27.73
2022-09-04T12:06:26.648Z,27.92
2022-09-04T12:07:26.638Z,28.31
2022-09-04T12:08:26.646Z,28.58
2022-09-04T12:09:26.628Z,28.90
2022-09-04T12:10:26.648Z,29.01
2022-09-04T12:11:26.611Z,29.03
2022-09-04T12:12:26.609Z,29.04
2022-09-04T12:13:27.143Z,29.15
2022-09-04T12:14:26.633Z,29.08
2022-09-04T12:15:26.594Z,28.90
2022-09-04T12:16:26.725Z,28.80
2022-09-04T12:17:26.780Z,28.16
2022-09-04T12:18:26.769Z,27.94
2022-09-04T12:19:26.584Z,28.23
2022-09-04T12:20:26.578Z,28.36
2022-09-04T12:21:26.560Z,28.35
2022-09-04T12:22:26.555Z,28.66
2022-09-04T12:23:26.553Z,29.06
2022-09-04T12:24:26.576Z,29.18
2022-09-04T12:25:26.537Z,29.04
2022-09-04T12:26:26.533Z,29.18
2022-09-04T12:27:26.526Z,28.81
2022-09-04T12:28:26.533Z,28.44
2022-09-04T12:29:26.516Z,28.07
2022-09-04T12:30:26.529Z,27.61
2022-09-04T12:31:26.555Z,27.54
2022-09-04T12:32:26.513Z,27.61
2022-09-04T12:33:26.495Z,28.03
2022-09-04T12:34:26.494Z,28.31
2022-09-04T12:35:31.175Z,28.44
2022-09-04T12:36:26.484Z,28.01
2022-09-04T12:37:26.471Z,27.73
2022-09-04T12:38:26.474Z,27.88
2022-09-04T12:39:26.479Z,28.11
2022-09-04T12:40:26.467Z,28.65
2022-09-04T12:41:26.514Z,29.10
2022-09-04T12:42:26.734Z,29.40
2022-09-04T12:43:26.453Z,29.18
2022-09-04T12:44:26.449Z,28.84
2022-09-04T12:45:26.464Z,28.65
2022-09-04T12:46:26.423Z,28.14
2022-09-04T12:47:26.439Z,27.53
2022-09-04T12:48:26.426Z,27.01
2022-09-04T12:49:26.404Z,27.05
2022-09-04T12:50:26.403Z,27.54
2022-09-04T12:51:27.042Z,28.06
2022-09-04T12:52:26.443Z,28.46
2022-09-04T12:53:26.647Z,28.47